createdAt,value
2023-04-04T00:02:10.075Z,3.30
2023-04-04T00:04:36.742Z,3.92
2023-04-04T00:07:03.351Z,5.80
2023-04-04T00:09:29.899Z,5.38
2023-04-04T00:11:56.470Z,4.95
2023-04-04T00:14:23.425Z,6.82
2023-04-04T00:16:49.940Z,3.47
2023-04-04T00:19:18.356Z,4.03
2023-04-04T00:21:46.073Z,4.25
2023-04-04T00:24:12.665Z,3.85
2023-04-04T00:26:39.191Z,4.13
2023-04-04T00:29:05.755Z,4.15
2023-04-04T00:31:32.626Z,3.78
2023-04-04T00:33:59.217Z,4.07
2023-04-04T00:36:25.726Z,7.18
2023-04-04T00:38:52.240Z,7.32
2023-04-04T00:41:18.847Z,5.32
2023-04-04T00:43:45.405Z,9.20
2023-04-04T00:46:15.077Z,4.35
2023-04-04T00:48:42.773Z,4.90
2023-04-04T00:51:09.445Z,7.18
2023-04-04T00:53:38.144Z,3.03
2023-04-04T00:56:04.951Z,4.10
2023-04-04T00:58:31.720Z,4.50
2023-04-04T01:01:00.275Z,7.07
2023-04-04T01:03:27.927Z,4.03
2023-04-04T01:05:55.981Z,5.82
2023-04-04T01:08:25.713Z,4.25
2023-04-04T01:10:52.345Z,6.88
2023-04-04T01:13:18.877Z,6.70
2023-04-04T01:15:45.671Z,4.68
2023-04-04T01:18:16.808Z,6.05
2023-04-04T01:20:55.671Z,6.47
2023-04-04T01:23:24.623Z,4.28
2023-04-04T01:26:01.474Z,4.63
2023-04-04T01:28:28.035Z,5.75
2023-04-04T01:30:55.470Z,5.95
2023-04-04T01:33:31.749Z,5.18
2023-04-04T01:36:18.934Z,5.50
2023-04-04T01:38:53.234Z,4.15
2023-04-04T01:41:21.528Z,6.93
2023-04-04T01:43:49.623Z,9.02
2023-04-04T01:46:19.430Z,5.32
2023-04-04T01:48:46.981Z,7.38
2023-04-04T01:51:14.057Z,6.43
2023-04-04T01:53:40.660Z,4.50
2023-04-04T01:56:07.352Z,4.60
2023-04-04T01:58:33.927Z,5.35
2023-04-04T02:01:00.496Z,4.47
2023-04-04T02:03:27.247Z,4.47
2023-04-04T02:05:54.155Z,3.20
2023-04-04T02:08:20.745Z,4.90
2023-04-04T02:10:47.599Z,4.80
2023-04-04T02:13:14.172Z,6.35
2023-04-04T02:15:40.772Z,4.38
2023-04-04T02:18:07.326Z,5.50
2023-04-04T02:20:33.960Z,5.63
2023-04-04T02:23:00.722Z,5.53
2023-04-04T02:25:27.908Z,4.82
2023-04-04T02:27:54.926Z,4.70
2023-04-04T02:30:21.450Z,5.70
2023-04-04T02:32:49.073Z,3.97
2023-04-04T02:35:17.514Z,5.70
2023-04-04T02:37:46.297Z,5.15
2023-04-04T02:40:13.323Z,7.03
2023-04-04T02:42:44.283Z,4.97
2023-04-04T02:45:11.802Z,6.70
2023-04-04T02:47:38.375Z,5.82
2023-04-04T02:50:05.298Z,6.85
2023-04-04T02:52:33.057Z,8.20
2023-04-04T02:54:59.560Z,5.93
2023-04-04T02:57:26.094Z,3.25
2023-04-04T02:59:52.888Z,5.22
2023-04-04T03:02:19.488Z,4.65
2023-04-04T03:04:46.486Z,3.50
2023-04-04T03:07:14.084Z,4.07
2023-04-04T03:09:42.021Z,4.50
2023-04-04T03:12:09.076Z,6.72
2023-04-04T03:14:35.573Z,5.70
2023-04-04T03:17:02.412Z,5.00
2023-04-04T03:19:29.269Z,7.10
2023-04-04T03:21:56.247Z,5.03
2023-04-04T03:24:22.769Z,5.00
2023-04-04T03:26:49.275Z,4.82
2023-04-04T03:29:16.426Z,5.55
2023-04-04T03:31:43.027Z,6.60
2023-04-04T03:34:09.836Z,3.88
2023-04-04T03:36:36.530Z,6.45
2023-04-04T03:39:03.073Z,6.38
2023-04-04T03:41:29.611Z,3.58
2023-04-04T03:43:56.183Z,5.83
2023-04-04T03:46:22.770Z,5.90
2023-04-04T03:48:49.377Z,4.57
2023-04-04T03:51:23.272Z,7.85
2023-04-04T03:53:49.798Z,4.53
2023-04-04T03:56:16.719Z,4.67
2023-04-04T03:58:43.445Z,7.80
2023-04-04T04:01:09.986Z,4.07
2023-04-04T04:03:37.444Z,3.63
2023-04-04T04:06:04.274Z,4.85
2023-04-04T04:08:30.768Z,8.40
2023-04-04T04:11:03.363Z,4.68
2023-04-04T04:13:29.877Z,4.65
2023-04-04T04:15:57.221Z,11.30
2023-04-04T04:18:23.812Z,4.50
2023-04-04T04:20:50.310Z,5.23
2023-04-04T04:23:16.833Z,4.75
2023-04-04T04:25:43.371Z,6.95
2023-04-04T04:28:09.948Z,5.20
2023-04-04T04:30:36.557Z,4.68
2023-04-04T04:33:03.823Z,3.80
2023-04-04T04:35:30.759Z,5.82
2023-04-04T04:37:57.277Z,6.88
2023-04-04T04:40:23.813Z,6.93
2023-04-04T04:42:51.890Z,6.88
2023-04-04T04:45:19.282Z,7.27
2023-04-04T04:47:46.234Z,10.63
2023-04-04T04:50:12.947Z,6.93
2023-04-04T04:52:39.453Z,9.32
2023-04-04T04:55:06.630Z,9.98
2023-04-04T04:57:34.387Z,6.03
2023-04-04T05:00:01.619Z,6.00
2023-04-04T05:02:28.383Z,6.95
2023-04-04T05:04:55.487Z,6.70
2023-04-04T05:07:22.673Z,6.22
2023-04-04T05:09:51.175Z,6.00
2023-04-04T05:12:18.134Z,8.82
2023-04-04T05:14:44.917Z,9.07
2023-04-04T05:17:11.656Z,6.93
2023-04-04T05:19:38.205Z,10.95
2023-04-04T05:22:04.845Z,7.27
2023-04-04T05:24:31.375Z,8.75
2023-04-04T05:26:57.887Z,6.85
2023-04-04T05:29:24.554Z,7.70
2023-04-04T05:31:51.196Z,10.10
2023-04-04T05:34:17.840Z,15.17
2023-04-04T05:36:44.409Z,11.38
2023-04-04T05:39:11.046Z,9.13
2023-04-04T05:41:37.824Z,10.55
2023-04-04T05:44:04.410Z,9.85
2023-04-04T05:46:31.305Z,6.73
2023-04-04T05:48:58.024Z,9.30
2023-04-04T05:51:24.529Z,8.02
2023-04-04T05:53:51.135Z,10.35
2023-04-04T05:56:17.927Z,13.07
2023-04-04T05:58:46.361Z,10.87
2023-04-04T06:01:12.931Z,6.28
2023-04-04T06:03:39.636Z,10.98
2023-04-04T06:06:06.395Z,8.65
2023-04-04T06:08:40.141Z,8.45
2023-04-04T06:11:17.083Z,7.40
2023-04-04T06:13:43.645Z,8.32
2023-04-04T06:16:11.015Z,9.40
2023-04-04T06:18:37.550Z,7.78
2023-04-04T06:21:04.254Z,9.02
2023-04-04T06:23:31.094Z,9.63
2023-04-04T06:25:57.686Z,12.18
2023-04-04T06:28:24.230Z,9.45
2023-04-04T06:30:50.750Z,7.30
2023-04-04T06:33:17.292Z,9.95
2023-04-04T06:35:44.675Z,13.80
2023-04-04T06:38:11.550Z,12.30
2023-04-04T06:40:38.264Z,9.15
2023-04-04T06:43:05.119Z,12.13
2023-04-04T06:45:33.692Z,11.73
2023-04-04T06:48:00.299Z,10.87
2023-04-04T06:50:30.994Z,11.13
2023-04-04T06:52:57.549Z,10.65
2023-04-04T06:55:24.290Z,9.43
2023-04-04T06:57:51.580Z,8.32
2023-04-04T07:00:18.506Z,8.13
2023-04-04T07:02:45.211Z,7.15
2023-04-04T07:05:13.933Z,8.93
2023-04-04T07:07:40.664Z,8.82
2023-04-04T07:10:07.601Z,7.07
2023-04-04T07:12:34.135Z,10.32
2023-04-04T07:15:00.630Z,7.95
2023-04-04T07:17:27.590Z,11.18
2023-04-04T07:19:54.160Z,8.32
2023-04-04T07:22:20.793Z,8.65
2023-04-04T07:24:48.282Z,8.45
2023-04-04T07:27:15.942Z,8.70
2023-04-04T07:29:42.666Z,8.27
2023-04-04T07:32:09.329Z,8.07
2023-04-04T07:34:35.893Z,9.25
2023-04-04T07:37:02.878Z,9.05
2023-04-04T07:39:29.397Z,5.65
2023-04-04T07:41:55.989Z,7.80
2023-04-04T07:44:22.651Z,9.85
2023-04-04T07:46:58.725Z,9.10
2023-04-04T07:49:33.578Z,6.63
2023-04-04T07:52:00.098Z,5.68
2023-04-04T07:54:27.357Z,7.53
2023-04-04T07:56:53.867Z,6.95
2023-04-04T07:59:20.547Z,7.82
2023-04-04T08:01:47.093Z,6.05
2023-04-04T08:04:13.630Z,5.55
2023-04-04T08:06:40.326Z,8.38
2023-04-04T08:09:06.899Z,9.32
2023-04-04T08:11:33.612Z,6.95
2023-04-04T08:14:00.170Z,7.28
2023-04-04T08:16:26.991Z,6.27
2023-04-04T08:18:54.189Z,7.78
2023-04-04T08:21:20.691Z,4.55
2023-04-04T08:23:47.236Z,4.65
2023-04-04T08:26:13.852Z,4.63
2023-04-04T08:28:40.486Z,4.87
2023-04-04T08:31:08.609Z,7.07
2023-04-04T08:33:46.756Z,6.13
2023-04-04T08:36:14.169Z,6.60
2023-04-04T08:38:40.967Z,6.07
2023-04-04T08:41:07.858Z,5.07
2023-04-04T08:43:35.912Z,7.65
2023-04-04T08:46:04.720Z,4.63
2023-04-04T08:48:33.240Z,5.07
2023-04-04T08:51:01.325Z,6.90
2023-04-04T08:53:29.525Z,5.67
2023-04-04T08:55:58.429Z,6.07
2023-04-04T08:58:25.159Z,10.02
2023-04-04T09:00:55.774Z,6.85
2023-04-04T09:03:27.542Z,5.18
2023-04-04T09:05:55.565Z,4.13
2023-04-04T09:08:24.880Z,7.18
2023-04-04T09:10:53.035Z,7.50
2023-04-04T09:13:20.183Z,5.20
2023-04-04T09:15:49.371Z,5.45
2023-04-04T09:18:16.814Z,7.20
2023-04-04T09:20:45.509Z,7.45
2023-04-04T09:23:13.815Z,8.63
2023-04-04T09:26:03.212Z,5.50
2023-04-04T09:28:32.383Z,7.13
2023-04-04T09:31:04.840Z,6.93
2023-04-04T09:33:33.717Z,6.55
2023-04-04T09:36:06.976Z,3.85
2023-04-04T09:38:37.704Z,6.38
2023-04-04T09:41:08.025Z,7.65
2023-04-04T09:43:35.734Z,4.03
2023-04-04T09:46:03.604Z,4.30
2023-04-04T09:48:32.652Z,5.03
2023-04-04T09:50:59.831Z,5.47
2023-04-04T09:53:27.236Z,4.88
2023-04-04T09:55:55.455Z,4.83
2023-04-04T09:58:27.819Z,5.50
2023-04-04T10:00:57.022Z,6.88
2023-04-04T10:03:24.952Z,6.85
2023-04-04T10:06:06.758Z,5.07
2023-04-04T10:08:35.419Z,6.10
2023-04-04T10:13:36.215Z,6.28
2023-04-04T10:16:04.385Z,5.25
2023-04-04T10:18:33.530Z,4.82
2023-04-04T10:21:14.674Z,6.10
2023-04-04T10:23:45.558Z,5.63
2023-04-04T10:26:13.245Z,7.35
2023-04-04T10:28:40.480Z,5.60
2023-04-04T10:31:13.255Z,5.75
2023-04-04T10:34:14.832Z,6.07
2023-04-04T10:36:54.036Z,7.38
2023-04-04T10:39:29.666Z,8.90
2023-04-04T10:41:58.894Z,6.45
2023-04-04T10:44:39.279Z,5.45
2023-04-04T10:47:27.084Z,7.63
2023-04-04T10:49:54.613Z,4.95
2023-04-04T10:52:24.849Z,4.82
2023-04-04T10:54:54.327Z,5.18
2023-04-04T10:57:21.391Z,3.22
2023-04-04T11:00:18.653Z,7.03
2023-04-04T11:03:02.487Z,6.13
2023-04-04T11:05:43.550Z,6.80
2023-04-04T11:08:14.132Z,6.28
2023-04-04T11:10:45.682Z,4.65
2023-04-04T11:13:22.127Z,4.80
2023-04-04T11:15:58.577Z,7.80
2023-04-04T11:18:43.632Z,3.95
2023-04-04T11:21:14.992Z,6.20
2023-04-04T11:23:47.513Z,5.95
2023-04-04T11:26:18.840Z,6.40
2023-04-04T11:28:46.382Z,6.53
2023-04-04T11:31:19.556Z,7.10
2023-04-04T11:34:05.962Z,6.93
2023-04-04T11:36:35.841Z,7.85
2023-04-04T11:39:28.257Z,6.57
2023-04-04T11:42:11.948Z,5.20
2023-04-04T11:45:05.428Z,4.10
2023-04-04T11:47:32.235Z,5.38
2023-04-04T11:50:01.595Z,4.68
2023-04-04T11:52:44.086Z,5.73
2023-04-04T11:55:19.637Z,5.22
2023-04-04T11:57:51.400Z,5.40
2023-04-04T12:00:37.039Z,6.25
2023-04-04T12:03:10.875Z,5.53
2023-04-04T12:05:43.286Z,5.63
2023-04-04T12:08:11.892Z,10.65
2023-04-04T12:10:41.058Z,7.00
2023-04-04T12:13:09.839Z,5.07
2023-04-04T12:15:37.340Z,7.10
2023-04-04T12:18:08.556Z,8.00
2023-04-04T12:20:39.044Z,5.40
2023-04-04T12:23:05.625Z,8.50
2023-04-04T12:25:34.316Z,6.18
2023-04-04T12:28:04.994Z,5.72
2023-04-04T12:30:32.354Z,7.97
2023-04-04T12:32:59.341Z,5.45
2023-04-04T12:35:26.095Z,7.10
2023-04-04T12:38:01.615Z,6.43
2023-04-04T12:40:37.453Z,5.20
2023-04-04T12:43:08.784Z,7.43
2023-04-04T12:45:40.126Z,7.80
2023-04-04T12:48:15.009Z,6.00
2023-04-04T12:50:56.870Z,6.70
2023-04-04T12:55:56.879Z,7.53
2023-04-04T12:58:28.469Z,5.82
2023-04-04T13:00:58.842Z,8.48
2023-04-04T13:03:25.785Z,10.75
2023-04-04T13:05:52.797Z,7.40
2023-04-04T13:08:19.575Z,7.13
2023-04-04T13:11:04.783Z,8.18
2023-04-04T13:13:40.328Z,6.72
2023-04-04T13:16:08.797Z,7.13
2023-04-04T13:18:43.528Z,6.25
2023-04-04T13:21:12.132Z,8.10
2023-04-04T13:23:41.054Z,7.38
2023-04-04T13:26:09.768Z,8.65
2023-04-04T13:28:36.833Z,6.97
2023-04-04T13:31:08.140Z,6.50
2023-04-04T13:33:35.183Z,8.03
2023-04-04T13:36:01.892Z,8.45
2023-04-04T13:38:29.543Z,6.43
2023-04-04T13:40:59.490Z,7.40
2023-04-04T13:43:26.401Z,7.00
2023-04-04T13:45:56.188Z,7.73
2023-04-04T13:48:23.029Z,7.60
2023-04-04T13:50:53.198Z,9.35
2023-04-04T13:53:20.154Z,7.97
2023-04-04T13:56:07.579Z,9.23
2023-04-04T13:58:33.606Z,6.50
2023-04-04T14:01:03.707Z,9.65
2023-04-04T14:03:31.074Z,7.45
2023-04-04T14:05:59.158Z,8.65
2023-04-04T14:08:28.793Z,6.72
2023-04-04T14:10:55.788Z,8.03
2023-04-04T14:13:22.324Z,8.43
2023-04-04T14:15:50.372Z,12.90
2023-04-04T14:18:17.022Z,6.88
2023-04-04T14:20:43.574Z,7.35
2023-04-04T14:23:10.176Z,7.37
2023-04-04T14:25:36.680Z,8.25
2023-04-04T14:28:03.236Z,8.80
2023-04-04T14:30:30.015Z,9.15
2023-04-04T14:32:56.762Z,10.50
2023-04-04T14:35:23.372Z,7.23
2023-04-04T14:37:50.123Z,7.82
2023-04-04T14:40:16.785Z,7.38
2023-04-04T14:42:43.401Z,8.60
2023-04-04T14:45:12.167Z,7.50
2023-04-04T14:47:38.761Z,9.97
2023-04-04T14:50:06.193Z,7.70
2023-04-04T14:52:32.734Z,8.98
2023-04-04T14:54:59.457Z,8.02
2023-04-04T14:57:26.385Z,10.75
2023-04-04T14:59:54.417Z,12.03
2023-04-04T15:02:22.212Z,6.57
2023-04-04T15:04:48.820Z,7.50
2023-04-04T15:07:15.798Z,9.25
2023-04-04T15:09:42.346Z,7.88
2023-04-04T15:12:08.894Z,7.67
2023-04-04T15:14:36.750Z,6.32
2023-04-04T15:17:03.344Z,7.57
2023-04-04T15:19:29.887Z,6.25
2023-04-04T15:21:57.173Z,7.95
2023-04-04T15:24:23.700Z,5.90
2023-04-04T15:26:50.332Z,7.40
2023-04-04T15:29:16.885Z,7.05
2023-04-04T15:31:43.422Z,8.85
2023-04-04T15:34:09.935Z,12.40
2023-04-04T15:36:36.567Z,7.70
2023-04-04T15:39:03.569Z,9.98
2023-04-04T15:41:30.405Z,8.77
2023-04-04T15:43:57.157Z,6.55
2023-04-04T15:46:23.817Z,9.45
2023-04-04T15:48:52.228Z,8.13
2023-04-04T15:51:19.865Z,8.63
2023-04-04T15:53:46.561Z,8.07
2023-04-04T15:56:13.814Z,8.73
2023-04-04T15:58:40.494Z,8.95
2023-04-04T16:01:07.748Z,7.67
2023-04-04T16:03:34.356Z,8.20
2023-04-04T16:06:01.210Z,8.55
2023-04-04T16:08:27.794Z,10.65
2023-04-04T16:10:56.914Z,8.48
2023-04-04T16:13:23.513Z,9.73
2023-04-04T16:15:50.225Z,8.82
2023-04-04T16:18:16.768Z,9.32
2023-04-04T16:20:43.320Z,7.53
2023-04-04T16:23:09.875Z,10.07
2023-04-04T16:25:36.459Z,8.00
2023-04-04T16:28:03.007Z,12.93
2023-04-04T16:30:29.619Z,10.68
2023-04-04T16:32:56.473Z,9.32
2023-04-04T16:35:23.132Z,7.75
2023-04-04T16:37:49.732Z,11.00
2023-04-04T16:40:16.642Z,9.27
2023-04-04T16:42:43.347Z,11.15
2023-04-04T16:45:11.022Z,8.52
2023-04-04T16:47:37.801Z,10.13
2023-04-04T16:50:06.042Z,12.83
2023-04-04T16:52:32.917Z,7.90
2023-04-04T16:54:59.660Z,7.28
2023-04-04T16:57:26.905Z,9.65
2023-04-04T16:59:53.584Z,9.48
2023-04-04T17:02:20.261Z,9.90
2023-04-04T17:04:46.831Z,8.32
2023-04-04T17:07:13.377Z,9.43
2023-04-04T17:09:40.077Z,12.32
2023-04-04T17:12:06.670Z,13.35
2023-04-04T17:14:33.512Z,9.38
2023-04-04T17:17:00.698Z,11.80
2023-04-04T17:19:31.735Z,10.20
2023-04-04T17:21:58.818Z,11.13
2023-04-04T17:24:27.020Z,10.75
2023-04-04T17:26:54.572Z,12.40
2023-04-04T17:29:26.553Z,14.20
2023-04-04T17:31:57.194Z,10.75
2023-04-04T17:34:24.221Z,12.77
2023-04-04T17:36:52.203Z,11.27
2023-04-04T17:39:18.842Z,13.43
2023-04-04T17:41:47.833Z,10.23
2023-04-04T17:44:19.186Z,9.75
2023-04-04T17:46:46.330Z,8.43
2023-04-04T17:49:19.456Z,13.55
2023-04-04T17:51:49.826Z,12.63
2023-04-04T17:54:16.855Z,11.65
2023-04-04T17:56:46.704Z,11.10
2023-04-04T17:59:14.741Z,11.07
2023-04-04T18:01:41.669Z,9.43
2023-04-04T18:04:08.382Z,14.68
2023-04-04T18:06:35.574Z,10.57
2023-04-04T18:09:02.125Z,13.02
2023-04-04T18:11:28.820Z,12.07
2023-04-04T18:13:55.381Z,15.38
2023-04-04T18:16:22.453Z,9.95
2023-04-04T18:18:48.999Z,12.65
2023-04-04T18:21:15.551Z,11.15
2023-04-04T18:23:42.074Z,11.02
2023-04-04T18:26:09.201Z,11.50
2023-04-04T18:28:35.784Z,15.05
2023-04-04T18:31:02.503Z,15.05
2023-04-04T18:33:29.349Z,12.93
2023-04-04T18:35:55.983Z,9.52
2023-04-04T18:38:25.084Z,12.85
2023-04-04T18:40:52.746Z,12.55
2023-04-04T18:43:19.544Z,11.27
2023-04-04T18:45:46.082Z,10.32
2023-04-04T18:48:12.824Z,12.38
2023-04-04T18:50:40.068Z,12.75
2023-04-04T18:53:07.824Z,12.65
2023-04-04T18:55:34.567Z,17.35
2023-04-04T18:58:01.103Z,14.40
2023-04-04T19:00:27.792Z,14.60
2023-04-04T19:02:54.386Z,9.32
2023-04-04T19:05:24.271Z,12.52
2023-04-04T19:07:57.025Z,16.65
2023-04-04T19:10:23.720Z,14.43
2023-04-04T19:12:50.920Z,10.27
2023-04-04T19:15:17.786Z,12.52
2023-04-04T19:17:44.405Z,11.43
2023-04-04T19:20:12.469Z,9.27
2023-04-04T19:22:39.040Z,12.63
2023-04-04T19:25:06.360Z,14.05
2023-04-04T19:27:32.944Z,11.50
2023-04-04T19:29:59.472Z,12.57
2023-04-04T19:32:28.043Z,13.75
2023-04-04T19:34:54.696Z,11.30
2023-04-04T19:37:21.265Z,13.15
2023-04-04T19:39:48.800Z,14.40
2023-04-04T19:42:19.214Z,12.43
2023-04-04T19:44:46.879Z,11.70
2023-04-04T19:47:19.491Z,9.80
2023-04-04T19:49:45.996Z,11.32
2023-04-04T19:52:15.454Z,13.75
2023-04-04T19:54:42.977Z,14.52
2023-04-04T19:57:18.466Z,14.50
2023-04-04T20:00:18.961Z,15.20
2023-04-04T20:02:52.923Z,11.35
2023-04-04T20:05:32.471Z,16.88
2023-04-04T20:08:00.553Z,11.60
2023-04-04T20:10:38.690Z,11.23
2023-04-04T20:13:06.635Z,13.50
2023-04-04T20:15:59.850Z,14.60
2023-04-04T20:18:29.568Z,12.43
2023-04-04T20:21:01.596Z,15.90
2023-04-04T20:23:31.386Z,14.43
2023-04-04T20:26:05.921Z,14.05
2023-04-04T20:28:32.954Z,16.83
2023-04-04T20:31:02.364Z,14.35
2023-04-04T20:33:36.884Z,20.17
2023-04-04T20:36:33.820Z,16.10
2023-04-04T20:39:00.826Z,13.73
2023-04-04T20:41:27.496Z,15.90
2023-04-04T20:43:58.575Z,19.30
2023-04-04T20:46:27.144Z,16.98
2023-04-04T20:48:56.783Z,19.83
2023-04-04T20:51:31.884Z,12.50
2023-04-04T20:54:01.442Z,15.65
2023-04-04T20:56:46.557Z,15.45
2023-04-04T20:59:38.447Z,13.93
2023-04-04T21:02:15.755Z,18.48
2023-04-04T21:04:45.556Z,16.05
2023-04-04T21:07:42.528Z,14.55
2023-04-04T21:10:27.053Z,16.20
2023-04-04T21:12:55.207Z,14.00
2023-04-04T21:15:25.635Z,20.95
2023-04-04T21:17:52.584Z,17.45
2023-04-04T21:20:47.721Z,19.10
2023-04-04T21:23:26.441Z,17.98
2023-04-04T21:25:58.574Z,15.70
2023-04-04T21:28:39.071Z,14.60
2023-04-04T21:31:25.824Z,17.75
2023-04-04T21:33:54.757Z,16.98
2023-04-04T21:36:24.292Z,19.93
2023-04-04T21:38:56.195Z,22.48
2023-04-04T21:41:29.733Z,18.05
2023-04-04T21:44:01.555Z,19.63
2023-04-04T21:46:32.070Z,18.70
2023-04-04T21:48:58.856Z,18.67
2023-04-04T21:51:26.197Z,21.35
2023-04-04T21:53:52.954Z,20.95
2023-04-04T21:56:19.863Z,21.98
2023-04-04T21:58:46.513Z,18.48
2023-04-04T22:01:13.116Z,22.37
2023-04-04T22:03:40.750Z,20.02
2023-04-04T22:06:07.537Z,22.83
2023-04-04T22:08:34.095Z,18.90
2023-04-04T22:11:02.239Z,22.70
2023-04-04T22:13:42.950Z,25.27
2023-04-04T22:16:16.051Z,23.80
2023-04-04T22:18:46.975Z,22.73
2023-04-04T22:21:14.998Z,24.60
2023-04-04T22:23:42.362Z,23.40
2023-04-04T22:26:11.111Z,26.70
2023-04-04T22:28:38.566Z,28.77
2023-04-04T22:31:06.136Z,25.40
2023-04-04T22:33:34.106Z,23.67
2023-04-04T22:36:02.195Z,24.58
2023-04-04T22:38:29.462Z,23.77
2023-04-04T22:40:57.735Z,23.80
2023-04-04T22:43:26.056Z,25.95
2023-04-04T22:45:53.535Z,28.73
2023-04-04T22:48:23.082Z,27.00
2023-04-04T22:50:55.822Z,23.50
2023-04-04T22:53:26.349Z,22.73
2023-04-04T22:55:54.163Z,25.75
2023-04-04T22:58:21.910Z,25.05
2023-04-04T23:00:48.501Z,28.10
2023-04-04T23:03:15.898Z,24.90
2023-04-04T23:05:43.003Z,35.88
2023-04-04T23:08:09.703Z,30.55
2023-04-04T23:10:36.837Z,24.50
2023-04-04T23:13:03.765Z,21.77
2023-04-04T23:15:32.353Z,32.10
2023-04-04T23:17:59.249Z,28.52
2023-04-04T23:20:25.911Z,28.73
2023-04-04T23:22:52.907Z,26.75
2023-04-04T23:25:19.586Z,27.42
2023-04-04T23:27:46.343Z,31.37
2023-04-04T23:30:13.136Z,32.10
2023-04-04T23:32:39.908Z,30.45
2023-04-04T23:35:09.685Z,27.27
2023-04-04T23:37:36.692Z,30.65
2023-04-04T23:40:04.910Z,24.70
2023-04-04T23:42:31.447Z,35.10
2023-04-04T23:44:59.515Z,29.63
2023-04-04T23:47:26.076Z,29.52
2023-04-04T23:49:52.873Z,30.88
2023-04-04T23:52:19.429Z,32.33
2023-04-04T23:54:45.984Z,37.38
2023-04-04T23:57:12.546Z,32.88
2023-04-04T23:59:39.102Z,32.20
